Time;durP1;ratioP1;P1;durP2;ratioP2;P2;SDS_P1;SDS_P2;PMS_P1;PMS_P2;Temp;Humidity;BMP_temperature;BMP_pressure;BME280_temperature;BME280_humidity;BME280_pressure;Samples;Min_cycle;Max_cycle;Signal;HPM_P1;HPM_P2
2023/11/30 00:02:03;;;;;;;16.10;13.40;;;0.60;99.90;;;;;;5066913;28;20044;-73
2023/11/30 00:04:29;;;;;;;14.80;12.45;;;0.60;99.90;;;;;;5086748;28;20055;-73
2023/11/30 00:06:55;;;;;;;18.42;14.65;;;0.60;99.90;;;;;;5082121;28;20040;-73
2023/11/30 00:09:21;;;;;;;24.27;17.57;;;0.60;99.90;;;;;;5084709;28;20487;-73
2023/11/30 00:11:47;;;;;;;18.57;14.27;;;0.60;99.90;;;;;;5063491;28;20044;-73
2023/11/30 00:14:12;;;;;;;19.08;14.68;;;0.60;99.90;;;;;;5078399;28;20050;-73
2023/11/30 00:16:38;;;;;;;19.53;14.20;;;0.50;99.90;;;;;;5078943;28;20516;-73
2023/11/30 00:19:05;;;;;;;16.75;13.57;;;0.50;99.90;;;;;;5070598;28;20041;-72
2023/11/30 00:21:30;;;;;;;18.52;14.13;;;0.40;99.90;;;;;;5068518;28;20098;-72
2023/11/30 00:23:57;;;;;;;17.47;13.93;;;0.50;99.90;;;;;;5063431;28;20452;-73
2023/11/30 00:26:22;;;;;;;15.27;12.43;;;0.40;99.90;;;;;;5094442;28;20040;-73
2023/11/30 00:28:49;;;;;;;19.13;14.10;;;0.40;99.90;;;;;;5086690;28;20554;-73
2023/11/30 00:31:14;;;;;;;13.88;11.80;;;0.40;99.90;;;;;;5083546;28;20127;-73
2023/11/30 00:33:40;;;;;;;20.47;14.30;;;0.40;99.90;;;;;;5076927;28;20131;-73
2023/11/30 00:36:07;;;;;;;21.70;15.30;;;0.30;99.90;;;;;;5093137;28;20105;-72
2023/11/30 00:38:33;;;;;;;22.02;15.25;;;0.30;99.90;;;;;;5085786;28;20567;-73
2023/11/30 00:40:59;;;;;;;19.80;14.67;;;0.20;99.90;;;;;;5085429;28;20197;-72
2023/11/30 00:43:24;;;;;;;21.90;15.67;;;0.30;99.90;;;;;;5064273;28;20089;-73
2023/11/30 00:45:50;;;;;;;20.37;15.27;;;0.10;99.90;;;;;;5080518;28;20047;-73
2023/11/30 00:48:16;;;;;;;15.23;12.97;;;0.10;99.90;;;;;;5076072;28;20039;-71
2023/11/30 00:50:42;;;;;;;16.00;14.07;;;0.10;99.90;;;;;;5064077;28;20036;-73
2023/11/30 00:53:07;;;;;;;17.47;14.43;;;0.10;99.90;;;;;;5076990;28;20179;-72
2023/11/30 00:55:33;;;;;;;18.10;14.40;;;0.00;99.90;;;;;;5084612;28;20040;-73
2023/11/30 00:57:59;;;;;;;19.63;15.13;;;0.00;99.90;;;;;;5082718;28;20067;-73
2023/11/30 01:00:25;;;;;;;23.30;16.67;;;0.00;99.90;;;;;;5072377;28;20039;-73
2023/11/30 01:02:50;;;;;;;16.07;13.30;;;-0.10;99.90;;;;;;5079316;28;20398;-73
2023/11/30 01:05:16;;;;;;;16.73;12.97;;;-0.10;99.90;;;;;;5065732;28;20036;-73
2023/11/30 01:07:42;;;;;;;17.67;14.10;;;-0.10;99.90;;;;;;5062005;28;20120;-75
2023/11/30 01:10:08;;;;;;;17.43;13.63;;;-0.20;99.90;;;;;;5086072;28;20075;-74
2023/11/30 01:12:33;;;;;;;21.33;15.37;;;-0.20;99.90;;;;;;5082676;28;20162;-74
2023/11/30 01:15:00;;;;;;;16.50;12.77;;;-0.20;99.90;;;;;;5088895;28;20401;-74
2023/11/30 01:17:25;;;;;;;16.80;14.10;;;-0.20;99.90;;;;;;5077020;28;20059;-73
2023/11/30 01:19:54;;;;;;;17.43;13.93;;;-0.20;99.90;;;;;;5056604;28;20044;-73
2023/11/30 01:22:20;;;;;;;18.17;12.93;;;-0.10;99.90;;;;;;5065383;28;20092;-73
2023/11/30 01:24:46;;;;;;;17.10;13.37;;;-0.20;99.90;;;;;;5077228;28;20044;-73
2023/11/30 01:27:12;;;;;;;16.33;12.60;;;-0.20;99.90;;;;;;5079460;28;20391;-73
2023/11/30 01:29:38;;;;;;;16.67;13.55;;;-0.20;99.90;;;;;;5062438;28;20517;-73
2023/11/30 01:32:04;;;;;;;18.83;13.80;;;-0.10;99.90;;;;;;5078660;28;20134;-73
2023/11/30 01:34:30;;;;;;;17.43;13.80;;;-0.10;99.90;;;;;;5079245;28;20079;-73
2023/11/30 01:36:55;;;;;;;21.47;15.23;;;-0.10;99.90;;;;;;5084680;28;20390;-73
2023/11/30 01:39:21;;;;;;;16.87;14.20;;;-0.10;99.90;;;;;;5061070;28;20130;-74
2023/11/30 01:41:47;;;;;;;66.37;19.03;;;-0.10;99.90;;;;;;5055563;28;20398;-73
2023/11/30 01:44:13;;;;;;;50.80;21.00;;;-0.10;99.90;;;;;;5080884;28;20035;-73
2023/11/30 01:46:39;;;;;;;46.20;18.00;;;0.00;99.90;;;;;;5081993;28;20115;-73
2023/11/30 01:49:07;;;;;;;39.40;16.40;;;0.00;99.90;;;;;;5059884;28;20105;-73
2023/11/30 01:51:35;;;;;;;168.77;20.90;;;0.00;99.90;;;;;;5079378;28;20444;-73
2023/11/30 01:54:02;;;;;;;35.53;13.30;;;-0.10;99.90;;;;;;5088302;28;20046;-73
2023/11/30 01:56:29;;;;;;;29.97;14.47;;;0.00;99.90;;;;;;5079852;28;20148;-73
2023/11/30 01:58:56;;;;;;;91.23;16.07;;;-0.10;99.90;;;;;;5082883;28;20035;-71
2023/11/30 02:01:25;;;;;;;58.60;14.17;;;-0.10;99.90;;;;;;5067319;28;20048;-71
2023/11/30 02:03:52;;;;;;;109.87;17.40;;;-0.10;99.90;;;;;;5078135;28;20036;-71
2023/11/30 02:06:19;;;;;;;117.83;17.37;;;-0.10;99.90;;;;;;5063347;28;21672;-72
2023/11/30 02:08:45;;;;;;;35.00;15.10;;;-0.20;99.90;;;;;;5079818;28;20040;-72
2023/11/30 02:11:12;;;;;;;76.33;17.57;;;-0.20;99.90;;;;;;5059604;28;20045;-73
2023/11/30 02:13:38;;;;;;;87.70;16.40;;;-0.20;99.90;;;;;;5069584;28;20488;-73
2023/11/30 02:16:04;;;;;;;92.73;18.93;;;-0.20;99.90;;;;;;5077404;28;20119;-73
2023/11/30 02:18:30;;;;;;;132.50;21.40;;;-0.30;99.90;;;;;;5073662;28;20055;-73
2023/11/30 02:20:56;;;;;;;34.33;13.70;;;-0.40;99.90;;;;;;5080013;28;20399;-73
2023/11/30 02:23:22;;;;;;;29.60;15.30;;;-0.40;99.90;;;;;;5075559;28;20044;-73
2023/11/30 02:25:47;;;;;;;29.70;15.70;;;-0.40;99.90;;;;;;5077270;28;20452;-73
2023/11/30 02:28:19;;;;;;;53.33;16.23;;;-0.40;99.90;;;;;;5076436;28;20500;-72
2023/11/30 02:30:46;;;;;;;29.60;14.83;;;-0.40;99.90;;;;;;5078927;28;20072;-72
2023/11/30 02:33:14;;;;;;;77.00;18.43;;;-0.40;99.90;;;;;;5090478;28;20055;-72
2023/11/30 02:35:40;;;;;;;19.63;12.53;;;-0.40;99.90;;;;;;5062049;28;20054;-73
2023/11/30 02:38:06;;;;;;;38.13;14.43;;;-0.40;99.90;;;;;;5061171;28;20032;-72
2023/11/30 02:40:31;;;;;;;66.93;16.53;;;-0.40;99.90;;;;;;5080510;28;20071;-72
2023/11/30 02:42:57;;;;;;;48.67;15.13;;;-0.50;99.90;;;;;;5058774;28;20037;-72
2023/11/30 02:45:23;;;;;;;50.27;14.90;;;-0.50;99.90;;;;;;5062189;28;20139;-72
2023/11/30 02:47:49;;;;;;;49.97;16.87;;;-0.60;99.90;;;;;;5075659;28;20051;-72
2023/11/30 02:50:14;;;;;;;46.13;15.37;;;-0.60;99.90;;;;;;5076761;28;20040;-72
2023/11/30 02:52:40;;;;;;;59.10;17.20;;;-0.60;99.90;;;;;;5075177;28;20055;-72
2023/11/30 02:55:06;;;;;;;44.50;16.50;;;-0.60;99.90;;;;;;5080126;28;20131;-72
2023/11/30 02:57:32;;;;;;;45.97;15.93;;;-0.70;99.90;;;;;;5078891;28;20127;-72
2023/11/30 02:59:58;;;;;;;60.93;15.57;;;-0.80;99.90;;;;;;5064663;28;20515;-72
2023/11/30 03:02:23;;;;;;;64.27;16.57;;;-0.80;99.90;;;;;;5060189;28;20131;-72
2023/11/30 03:04:49;;;;;;;70.10;16.23;;;-0.80;99.90;;;;;;5062306;28;20082;-72
2023/11/30 03:07:15;;;;;;;57.03;16.57;;;-0.80;99.90;;;;;;5070846;28;20131;-72
2023/11/30 03:09:41;;;;;;;49.50;17.37;;;-0.90;99.90;;;;;;5058164;28;20115;-72
2023/11/30 03:12:07;;;;;;;32.70;16.77;;;-0.90;99.90;;;;;;5073434;28;20044;-72
2023/11/30 03:14:33;;;;;;;33.37;16.77;;;-0.90;99.90;;;;;;5072208;28;20047;-72
2023/11/30 03:16:58;;;;;;;35.67;17.40;;;-0.90;99.90;;;;;;5070960;28;20036;-72
2023/11/30 03:19:24;;;;;;;32.10;17.90;;;-0.90;99.90;;;;;;5071887;28;20044;-72
2023/11/30 03:21:51;;;;;;;34.80;16.83;;;-0.90;99.90;;;;;;5057378;28;20220;-72
2023/11/30 03:24:22;;;;;;;23.93;16.23;;;-0.90;99.90;;;;;;5064957;28;20127;-71
2023/11/30 03:26:47;;;;;;;37.43;18.10;;;-0.90;99.90;;;;;;5077943;28;20800;-72
2023/11/30 03:29:13;;;;;;;22.23;16.93;;;-0.90;99.90;;;;;;5079901;28;20040;-70
2023/11/30 03:31:39;;;;;;;22.97;17.20;;;-0.90;99.90;;;;;;5077248;28;20078;-71
2023/11/30 03:34:11;;;;;;;47.17;18.93;;;-0.80;99.90;;;;;;5062432;28;20303;-71
2023/11/30 03:36:36;;;;;;;57.60;18.03;;;-0.90;99.90;;;;;;5077467;28;20062;-70
2023/11/30 03:39:02;;;;;;;61.23;17.77;;;-0.90;99.90;;;;;;5064688;28;20494;-71
2023/11/30 03:41:28;;;;;;;85.40;17.53;;;-0.90;99.90;;;;;;5077972;28;20470;-70
2023/11/30 03:43:54;;;;;;;101.57;19.03;;;-1.00;99.90;;;;;;5081229;28;20131;-71
2023/11/30 03:46:26;;;;;;;106.43;19.53;;;-1.00;99.90;;;;;;5078687;28;20044;-71
2023/11/30 03:48:53;;;;;;;72.97;19.63;;;-1.00;99.90;;;;;;5081664;28;20122;-71
2023/11/30 03:51:20;;;;;;;83.00;21.27;;;-1.00;99.90;;;;;;5056662;28;20047;-71
2023/11/30 03:53:46;;;;;;;58.03;19.60;;;-1.10;99.90;;;;;;5069851;28;20041;-71
2023/11/30 03:56:12;;;;;;;85.70;22.30;;;-1.10;99.90;;;;;;5060783;28;20408;-71
2023/11/30 03:58:37;;;;;;;60.20;19.77;;;-1.10;99.90;;;;;;5093850;28;20040;-71
2023/11/30 04:01:04;;;;;;;58.17;20.37;;;-1.10;99.90;;;;;;5088281;28;20042;-71
2023/11/30 04:03:30;;;;;;;42.50;19.27;;;-1.20;99.90;;;;;;5067411;28;20270;-71
2023/11/30 04:05:56;;;;;;;69.60;20.23;;;-1.20;99.90;;;;;;5080437;28;20040;-71
2023/11/30 04:08:22;;;;;;;85.87;22.63;;;-1.20;99.90;;;;;;5085541;28;20499;-71
2023/11/30 04:10:48;;;;;;;77.00;20.13;;;-1.30;99.90;;;;;;5084786;28;20584;-71
2023/11/30 04:13:13;;;;;;;98.40;22.10;;;-1.30;99.90;;;;;;5072820;28;20048;-71
2023/11/30 04:15:39;;;;;;;98.13;21.33;;;-1.30;99.90;;;;;;5080453;28;20415;-71
2023/11/30 04:18:05;;;;;;;51.50;18.33;;;-1.30;99.90;;;;;;5067928;28;20047;-71
2023/11/30 04:20:31;;;;;;;72.73;19.20;;;-1.30;99.90;;;;;;5064802;28;20042;-71
2023/11/30 04:22:56;;;;;;;46.30;16.37;;;-1.20;99.90;;;;;;5065712;28;20097;-72
2023/11/30 04:25:22;;;;;;;77.23;18.80;;;-1.30;99.90;;;;;;5070321;28;20376;-72
2023/11/30 04:27:48;;;;;;;55.13;20.10;;;-1.20;99.90;;;;;;5063772;28;20135;-72
2023/11/30 04:30:14;;;;;;;46.73;18.70;;;-1.20;99.90;;;;;;5067819;28;20055;-72
2023/11/30 04:32:39;;;;;;;24.37;15.50;;;-1.20;99.90;;;;;;5083255;28;20205;-72
2023/11/30 04:35:05;;;;;;;57.60;18.03;;;-1.10;99.90;;;;;;5071900;28;20040;-72
2023/11/30 04:37:31;;;;;;;20.93;13.70;;;-1.10;99.90;;;;;;5090551;28;20224;-72
2023/11/30 04:39:58;;;;;;;23.67;13.90;;;-1.00;99.90;;;;;;5085249;28;20047;-71
2023/11/30 04:42:23;;;;;;;36.53;15.67;;;-1.10;99.90;;;;;;5078467;28;20070;-71
2023/11/30 04:44:49;;;;;;;82.47;17.80;;;-1.10;99.90;;;;;;5079587;28;20498;-71
2023/11/30 04:47:15;;;;;;;73.90;15.37;;;-1.10;99.90;;;;;;5080623;28;20048;-71
2023/11/30 04:49:41;;;;;;;160.00;17.73;;;-1.10;99.90;;;;;;5078315;28;20048;-71
2023/11/30 04:52:06;;;;;;;63.50;12.97;;;-1.10;99.90;;;;;;5089232;28;20375;-71
2023/11/30 04:54:32;;;;;;;35.00;11.63;;;-1.20;99.90;;;;;;5081582;28;20051;-71
2023/11/30 04:56:59;;;;;;;115.13;14.63;;;-1.20;99.90;;;;;;5067137;28;20028;-71
2023/11/30 04:59:24;;;;;;;90.70;14.90;;;-1.20;99.90;;;;;;5082133;28;20533;-71
2023/11/30 05:01:50;;;;;;;62.70;12.87;;;-1.20;99.90;;;;;;5071952;28;20040;-71
2023/11/30 05:04:16;;;;;;;41.03;12.20;;;-1.20;99.90;;;;;;5066389;28;20043;-71
2023/11/30 05:06:41;;;;;;;77.80;16.43;;;-1.30;99.90;;;;;;5074287;28;20055;-71
2023/11/30 05:09:08;;;;;;;64.83;13.90;;;-1.20;99.90;;;;;;5059105;28;20554;-71
2023/11/30 05:11:34;;;;;;;60.67;14.20;;;-1.30;99.90;;;;;;5071658;28;20111;-70
2023/11/30 05:13:59;;;;;;;44.50;12.60;;;-1.20;99.90;;;;;;5079336;28;20187;-71
2023/11/30 05:16:25;;;;;;;37.80;13.13;;;-1.20;99.90;;;;;;5057861;28;20152;-70
2023/11/30 05:18:51;;;;;;;40.23;15.83;;;-1.20;99.90;;;;;;5066193;28;20051;-70
2023/11/30 05:21:17;;;;;;;80.77;15.13;;;-1.10;99.90;;;;;;5067775;28;20053;-71
2023/11/30 05:23:42;;;;;;;107.40;17.13;;;-1.10;99.90;;;;;;5065768;28;20053;-70
2023/11/30 05:26:08;;;;;;;98.63;18.00;;;-1.10;99.90;;;;;;5065201;28;20499;-70
2023/11/30 05:28:34;;;;;;;113.20;18.70;;;-1.10;99.90;;;;;;5077446;28;20052;-70
2023/11/30 05:31:00;;;;;;;139.23;21.40;;;-1.10;99.90;;;;;;5066790;28;20040;-70
2023/11/30 05:33:27;;;;;;;46.37;15.50;;;-1.10;99.90;;;;;;5054616;28;20075;-70
2023/11/30 05:35:53;;;;;;;69.57;18.03;;;-1.00;99.90;;;;;;5065858;28;20057;-70
2023/11/30 05:38:19;;;;;;;57.50;16.13;;;-1.00;99.90;;;;;;5065276;28;20040;-71
2023/11/30 05:40:45;;;;;;;73.13;17.33;;;-1.00;99.90;;;;;;5077838;28;20047;-70
2023/11/30 05:43:11;;;;;;;142.10;21.03;;;-0.90;99.90;;;;;;5075798;28;20047;-70
2023/11/30 05:45:37;;;;;;;88.03;16.97;;;-0.90;99.90;;;;;;5069626;28;20048;-70
2023/11/30 05:48:03;;;;;;;40.93;15.37;;;-0.90;99.90;;;;;;5067744;28;20495;-70
2023/11/30 05:50:29;;;;;;;106.83;18.80;;;-0.80;99.90;;;;;;5061167;28;20117;-69
2023/11/30 05:52:54;;;;;;;84.73;17.43;;;-0.80;99.90;;;;;;5075681;28;20434;-70
2023/11/30 05:55:20;;;;;;;41.33;17.50;;;-0.80;99.90;;;;;;5076984;28;20091;-70
2023/11/30 05:57:46;;;;;;;105.93;19.10;;;-0.80;99.90;;;;;;5070738;28;20131;-70
2023/11/30 06:00:12;;;;;;;89.70;19.93;;;-0.70;99.90;;;;;;5079050;28;20083;-70
2023/11/30 06:02:41;;;;;;;107.50;19.77;;;-0.70;99.90;;;;;;5067386;28;20337;-70
2023/11/30 06:05:07;;;;;;;79.47;18.43;;;-0.70;99.90;;;;;;5071295;28;20052;-70
2023/11/30 06:07:33;;;;;;;66.20;19.03;;;-0.70;99.90;;;;;;5067708;28;20109;-70
2023/11/30 06:09:59;;;;;;;81.73;22.37;;;-0.70;99.90;;;;;;5069882;28;20111;-70
2023/11/30 06:12:26;;;;;;;47.87;17.97;;;-0.70;99.90;;;;;;5081959;28;20380;-70
2023/11/30 06:14:52;;;;;;;75.63;18.63;;;-0.70;99.90;;;;;;5063386;28;20048;-70
2023/11/30 06:17:18;;;;;;;60.83;20.73;;;-0.60;99.90;;;;;;5078542;28;20379;-70
2023/11/30 06:19:44;;;;;;;28.57;18.50;;;-0.60;99.90;;;;;;5061118;28;20043;-72
2023/11/30 06:22:13;;;;;;;32.73;18.67;;;-0.70;99.90;;;;;;5055405;28;20478;-72
2023/11/30 06:24:39;;;;;;;28.53;17.33;;;-0.60;99.90;;;;;;5082140;28;20047;-72
2023/11/30 06:27:06;;;;;;;29.27;18.00;;;-0.50;99.90;;;;;;5081637;28;20040;-72
2023/11/30 06:29:32;;;;;;;35.93;20.17;;;-0.50;99.90;;;;;;5064515;28;20043;-72
2023/11/30 06:32:00;;;;;;;25.77;16.87;;;-0.50;99.90;;;;;;5084944;28;20110;-72
2023/11/30 06:34:26;;;;;;;27.23;18.27;;;-0.50;99.90;;;;;;5089037;28;20093;-72
2023/11/30 06:36:52;;;;;;;31.17;19.10;;;-0.50;99.90;;;;;;5086202;28;20047;-72
2023/11/30 06:39:18;;;;;;;31.47;20.50;;;-0.40;99.90;;;;;;5062022;28;20166;-72
2023/11/30 06:41:47;;;;;;;46.17;23.50;;;-0.40;99.90;;;;;;5062592;28;20040;-72
2023/11/30 06:44:13;;;;;;;113.05;27.60;;;-0.40;99.90;;;;;;5062517;28;20076;-72
2023/11/30 06:46:42;;;;;;;33.03;19.63;;;-0.40;99.90;;;;;;5086376;28;20590;-71
2023/11/30 06:49:12;;;;;;;38.57;20.87;;;-0.30;99.90;;;;;;5077251;28;20079;-70
2023/11/30 06:51:39;;;;;;;37.47;22.33;;;-0.30;99.90;;;;;;5063135;28;20032;-71
2023/11/30 06:54:04;;;;;;;41.50;24.87;;;-0.30;99.90;;;;;;5080866;28;20059;-71
2023/11/30 06:56:30;;;;;;;49.23;23.90;;;-0.20;99.90;;;;;;5075212;28;20055;-71
2023/11/30 06:58:56;;;;;;;45.20;25.47;;;-0.20;99.90;;;;;;5081949;28;20036;-71
2023/11/30 07:01:25;;;;;;;85.63;29.43;;;-0.10;99.90;;;;;;5062989;28;20052;-71
2023/11/30 07:03:51;;;;;;;41.50;23.83;;;-0.10;99.90;;;;;;5071994;28;20040;-71
2023/11/30 07:06:18;;;;;;;35.13;22.70;;;-0.10;99.90;;;;;;5088795;28;20130;-71
2023/11/30 07:08:44;;;;;;;105.57;31.80;;;-0.10;99.90;;;;;;5070247;28;20584;-71
2023/11/30 07:11:14;;;;;;;43.73;23.70;;;-0.10;99.90;;;;;;5088904;28;20123;-70
2023/11/30 07:13:40;;;;;;;51.35;25.48;;;-0.10;99.90;;;;;;5099463;28;20517;-70
2023/11/30 07:16:07;;;;;;;126.50;33.67;;;0.00;99.90;;;;;;5070346;28;20040;-70
2023/11/30 07:18:33;;;;;;;71.77;26.87;;;0.00;99.90;;;;;;5073353;28;20054;-70
2023/11/30 07:20:59;;;;;;;122.47;33.27;;;0.00;99.90;;;;;;5065058;28;20170;-70
2023/11/30 07:23:25;;;;;;;80.83;27.50;;;0.00;99.90;;;;;;5083521;28;20139;-70
2023/11/30 07:25:50;;;;;;;57.03;24.97;;;0.00;99.90;;;;;;5090298;28;20055;-70
2023/11/30 07:28:16;;;;;;;70.23;26.77;;;0.00;99.90;;;;;;5089361;28;20042;-70
2023/11/30 07:30:42;;;;;;;195.20;37.37;;;0.10;99.90;;;;;;5077725;28;20159;-70
2023/11/30 07:33:11;;;;;;;135.43;33.77;;;0.10;99.90;;;;;;5078889;28;20538;-70
2023/11/30 07:35:38;;;;;;;139.43;35.07;;;0.10;99.90;;;;;;5071051;28;20043;-70
2023/11/30 07:38:04;;;;;;;75.67;27.77;;;0.10;99.90;;;;;;5080505;28;20534;-70
2023/11/30 07:40:32;;;;;;;74.33;26.80;;;0.10;99.90;;;;;;5082764;28;20056;-71
2023/11/30 07:42:58;;;;;;;108.10;31.10;;;0.10;99.90;;;;;;5065531;28;20135;-70
2023/11/30 07:45:24;;;;;;;167.37;39.57;;;0.10;99.90;;;;;;5089625;28;20482;-70
2023/11/30 07:47:50;;;;;;;155.83;39.27;;;0.10;99.90;;;;;;5082105;28;20145;-70
2023/11/30 07:50:16;;;;;;;117.00;35.57;;;0.20;99.90;;;;;;5083319;28;20059;-70
2023/11/30 07:52:42;;;;;;;68.83;30.27;;;0.10;99.90;;;;;;5080652;28;20770;-70
2023/11/30 07:55:08;;;;;;;66.73;30.83;;;0.10;99.90;;;;;;5067303;28;20505;-71
2023/11/30 07:57:34;;;;;;;235.03;42.23;;;0.10;99.90;;;;;;5076640;28;20048;-70
2023/11/30 08:00:02;;;;;;;240.53;44.93;;;0.10;99.90;;;;;;5085166;28;20075;-70
2023/11/30 08:02:28;;;;;;;52.03;27.57;;;0.10;99.90;;;;;;5079408;28;20545;-70
2023/11/30 08:04:54;;;;;;;91.27;31.30;;;0.20;99.90;;;;;;5064569;28;20056;-71
2023/11/30 08:07:20;;;;;;;107.37;35.00;;;0.20;99.90;;;;;;5083645;28;20096;-71
2023/11/30 08:09:46;;;;;;;97.47;32.37;;;0.20;99.90;;;;;;5079916;28;20591;-71
2023/11/30 08:12:12;;;;;;;123.27;36.53;;;0.10;99.90;;;;;;5067815;28;20165;-71
2023/11/30 08:14:38;;;;;;;53.33;28.13;;;0.20;99.90;;;;;;5091108;28;20553;-71
2023/11/30 08:17:05;;;;;;;78.00;30.73;;;0.20;99.90;;;;;;5087680;28;20093;-70
2023/11/30 08:19:32;;;;;;;156.23;41.37;;;0.20;99.90;;;;;;5062783;28;20400;-71
2023/11/30 08:21:58;;;;;;;97.57;35.57;;;0.20;99.90;;;;;;5062678;28;20043;-70
2023/11/30 08:24:24;;;;;;;129.83;38.87;;;0.20;99.90;;;;;;5083809;28;20110;-71
2023/11/30 08:26:50;;;;;;;99.43;35.87;;;0.20;99.90;;;;;;5084180;28;20055;-70
2023/11/30 08:29:16;;;;;;;180.97;46.17;;;0.20;99.90;;;;;;5078643;28;20055;-71
2023/11/30 08:31:42;;;;;;;108.93;38.30;;;0.20;99.90;;;;;;5085874;28;20036;-70
2023/11/30 08:34:09;;;;;;;98.03;33.50;;;0.30;99.90;;;;;;5085715;28;20052;-70
2023/11/30 08:36:35;;;;;;;82.87;31.77;;;0.30;99.90;;;;;;5063393;28;20476;-70
2023/11/30 08:39:03;;;;;;;74.07;31.70;;;0.30;99.90;;;;;;5090704;28;20043;-70
2023/11/30 08:41:30;;;;;;;115.77;34.47;;;0.30;99.90;;;;;;5077583;28;20400;-70
2023/11/30 08:43:56;;;;;;;121.43;38.63;;;0.40;99.90;;;;;;5082319;28;20040;-71
2023/11/30 08:46:25;;;;;;;121.50;37.13;;;0.30;99.90;;;;;;5083313;28;20055;-70
2023/11/30 08:48:50;;;;;;;134.33;38.60;;;0.40;99.90;;;;;;5079449;28;20044;-70
2023/11/30 08:51:16;;;;;;;107.03;34.85;;;0.40;99.90;;;;;;5080138;28;20040;-70
2023/11/30 08:53:42;;;;;;;115.57;34.00;;;0.40;99.90;;;;;;5080942;28;20050;-71
2023/11/30 08:56:08;;;;;;;111.17;35.40;;;0.40;99.90;;;;;;5079032;28;20047;-70
2023/11/30 08:58:34;;;;;;;122.93;34.17;;;0.40;99.90;;;;;;5077370;28;20051;-70
2023/11/30 09:01:00;;;;;;;105.60;34.17;;;0.40;99.90;;;;;;5080025;28;20047;-71
2023/11/30 09:03:26;;;;;;;89.53;31.80;;;0.40;99.90;;;;;;5077009;28;20052;-71
2023/11/30 09:05:52;;;;;;;91.40;34.97;;;0.40;99.90;;;;;;5083009;28;20122;-71
2023/11/30 09:08:18;;;;;;;110.90;35.90;;;0.40;99.90;;;;;;5063500;28;20554;-72
2023/11/30 09:10:43;;;;;;;94.80;35.03;;;0.40;99.90;;;;;;5077077;28;20075;-72
2023/11/30 09:13:09;;;;;;;387.97;62.63;;;0.50;99.90;;;;;;5076333;28;20040;-72
2023/11/30 09:15:36;;;;;;;125.03;37.63;;;0.50;99.90;;;;;;5077069;28;20410;-72
2023/11/30 09:18:03;;;;;;;92.87;36.37;;;0.50;99.90;;;;;;5079765;28;20044;-72
2023/11/30 09:20:29;;;;;;;103.38;33.90;;;0.50;99.90;;;;;;5084429;28;20130;-72
2023/11/30 09:22:55;;;;;;;100.47;35.15;;;0.60;99.90;;;;;;5062842;28;20060;-72
2023/11/30 09:25:21;;;;;;;125.07;37.63;;;0.60;99.90;;;;;;5065695;28;20044;-72
2023/11/30 09:27:47;;;;;;;91.70;34.10;;;0.60;99.90;;;;;;5076966;28;20151;-72
2023/11/30 09:30:14;;;;;;;74.00;33.47;;;0.60;99.90;;;;;;5072699;28;20117;-72
2023/11/30 09:32:40;;;;;;;113.93;35.03;;;0.60;99.90;;;;;;5078157;28;20051;-72
2023/11/30 09:35:06;;;;;;;136.50;38.70;;;0.60;99.90;;;;;;5076729;28;20097;-72
2023/11/30 09:37:34;;;;;;;171.87;43.07;;;0.60;99.90;;;;;;5058381;28;20109;-72
2023/11/30 09:40:00;;;;;;;79.47;32.87;;;0.60;99.90;;;;;;5081768;28;20097;-72
2023/11/30 09:42:28;;;;;;;71.50;32.80;;;0.60;99.90;;;;;;5056733;28;20048;-72
2023/11/30 09:44:57;;;;;;;66.63;32.00;;;0.60;99.90;;;;;;5060267;28;20040;-72
2023/11/30 09:47:23;;;;;;;81.70;35.58;;;0.60;99.90;;;;;;5063279;28;20051;-72
2023/11/30 09:49:50;;;;;;;67.20;32.97;;;0.60;99.90;;;;;;5080611;28;20068;-72
2023/11/30 09:52:16;;;;;;;76.93;33.93;;;0.60;99.90;;;;;;5072810;28;20333;-73
2023/11/30 09:54:42;;;;;;;78.45;32.83;;;0.60;99.90;;;;;;5076933;28;20095;-72
2023/11/30 09:57:08;;;;;;;81.40;34.03;;;0.60;99.90;;;;;;5064091;28;20028;-72
2023/11/30 09:59:34;;;;;;;69.47;32.47;;;0.60;99.90;;;;;;5075602;28;20091;-72
2023/11/30 10:01:59;;;;;;;62.65;33.13;;;0.60;99.90;;;;;;5073898;28;20507;-72
2023/11/30 10:04:26;;;;;;;98.93;36.43;;;0.60;99.90;;;;;;5064815;28;20063;-72
2023/11/30 10:06:55;;;;;;;398.75;63.05;;;0.70;99.90;;;;;;5076139;28;20052;-73
2023/11/30 10:09:24;;;;;;;61.60;34.05;;;0.70;99.90;;;;;;5060200;28;20097;-72
2023/11/30 10:11:50;;;;;;;69.90;35.45;;;0.70;99.90;;;;;;5064175;28;20044;-72
2023/11/30 10:14:17;;;;;;;193.27;48.90;;;0.70;99.90;;;;;;5062057;28;20518;-72
2023/11/30 10:16:43;;;;;;;60.00;35.03;;;0.70;99.90;;;;;;5090488;28;20048;-72
2023/11/30 10:19:10;;;;;;;87.10;41.13;;;0.80;99.90;;;;;;5072857;28;20749;-72
2023/11/30 10:21:37;;;;;;;70.53;37.63;;;0.80;99.90;;;;;;5079816;28;20048;-72
2023/11/30 10:24:04;;;;;;;75.47;39.55;;;0.80;99.90;;;;;;5076060;28;20062;-72
2023/11/30 10:26:33;;;;;;;74.90;34.70;;;0.70;99.90;;;;;;5064791;28;20494;-72
2023/11/30 10:29:03;;;;;;;130.00;38.53;;;0.70;99.90;;;;;;5086127;28;20566;-72
2023/11/30 10:31:33;;;;;;;79.00;32.67;;;0.70;99.90;;;;;;5079460;28;20487;-72
2023/11/30 10:34:10;;;;;;;117.38;40.05;;;0.70;99.90;;;;;;5093154;28;20048;-72
2023/11/30 10:36:37;;;;;;;80.93;38.50;;;0.70;99.90;;;;;;5087952;28;20103;-72
2023/11/30 10:39:16;;;;;;;103.25;42.45;;;0.70;99.90;;;;;;5084372;28;20048;-72
2023/11/30 10:41:52;;;;;;;80.82;39.63;;;0.80;99.90;;;;;;5080849;28;20493;-72
2023/11/30 10:44:25;;;;;;;86.30;40.15;;;0.70;99.90;;;;;;5067410;28;20479;-72
2023/11/30 10:46:59;;;;;;;94.68;40.63;;;0.80;99.90;;;;;;5085293;28;20138;-72
2023/11/30 10:49:27;;;;;;;99.97;41.28;;;0.80;99.90;;;;;;5082653;28;20090;-72
2023/11/30 10:51:59;;;;;;;118.28;41.97;;;0.80;99.90;;;;;;5082143;28;20040;-72
2023/11/30 10:54:31;;;;;;;69.20;37.50;;;0.80;99.90;;;;;;5068357;28;20044;-72
2023/11/30 10:57:02;;;;;;;107.47;38.67;;;0.80;99.90;;;;;;5081163;28;20048;-72
2023/11/30 10:59:30;;;;;;;92.30;37.27;;;0.80;99.90;;;;;;5065246;28;20044;-72
2023/11/30 11:01:56;;;;;;;91.37;37.37;;;0.80;99.90;;;;;;5063689;28;20054;-72
2023/11/30 11:04:29;;;;;;;119.68;42.38;;;0.80;99.90;;;;;;5081866;28;20178;-72
2023/11/30 11:07:12;;;;;;;88.83;37.60;;;0.70;99.90;;;;;;5083614;28;20074;-72
2023/11/30 11:09:51;;;;;;;109.10;38.50;;;0.80;99.90;;;;;;5065523;28;20509;-72
2023/11/30 11:12:26;;;;;;;115.60;39.08;;;0.80;99.90;;;;;;5087924;28;20062;-72
2023/11/30 11:15:09;;;;;;;86.13;36.72;;;0.80;99.90;;;;;;5065895;28;20469;-72
2023/11/30 11:17:46;;;;;;;105.25;37.13;;;0.80;99.90;;;;;;5084662;28;20131;-72
2023/11/30 11:20:22;;;;;;;110.63;38.28;;;0.90;99.90;;;;;;5086476;28;20031;-72
2023/11/30 11:22:55;;;;;;;92.78;36.58;;;0.80;99.90;;;;;;5082227;28;20495;-72
2023/11/30 11:25:23;;;;;;;108.63;37.43;;;0.80;99.90;;;;;;5066488;28;20052;-72
2023/11/30 11:27:49;;;;;;;70.25;34.33;;;0.80;99.90;;;;;;5063726;28;20043;-72
2023/11/30 11:30:15;;;;;;;79.55;33.70;;;0.80;99.90;;;;;;5071917;28;20513;-73
2023/11/30 11:32:42;;;;;;;69.78;33.00;;;0.90;99.90;;;;;;5086747;28;20132;-72
2023/11/30 11:35:10;;;;;;;72.10;31.75;;;0.90;99.90;;;;;;5064548;28;20174;-72
2023/11/30 11:37:36;;;;;;;59.07;28.27;;;0.90;99.90;;;;;;5090013;28;20052;-72
2023/11/30 11:40:03;;;;;;;57.15;27.48;;;0.80;99.90;;;;;;5077281;28;20040;-72
2023/11/30 11:42:29;;;;;;;78.63;31.45;;;0.80;99.90;;;;;;5080584;28;20052;-73
2023/11/30 11:44:55;;;;;;;142.63;38.47;;;0.90;99.90;;;;;;5073205;28;20040;-73
2023/11/30 11:47:22;;;;;;;87.78;31.25;;;0.80;99.90;;;;;;5073799;28;20048;-73
2023/11/30 11:49:48;;;;;;;60.03;30.60;;;0.80;99.90;;;;;;5071334;28;20403;-74
2023/11/30 11:52:21;;;;;;;74.82;30.98;;;0.80;99.90;;;;;;5056643;28;20368;-73
2023/11/30 11:54:58;;;;;;;71.43;28.90;;;0.80;99.90;;;;;;5075151;28;20134;-74
2023/11/30 11:57:54;;;;;;;78.82;31.90;;;0.90;99.90;;;;;;5060765;28;20044;-74
2023/11/30 12:00:20;;;;;;;66.10;30.33;;;0.80;99.90;;;;;;5075484;28;20462;-74
2023/11/30 12:02:47;;;;;;;89.95;31.88;;;0.80;99.90;;;;;;5057997;28;20084;-73
2023/11/30 12:05:16;;;;;;;67.90;29.52;;;0.80;99.90;;;;;;5072101;28;20040;-73
2023/11/30 12:07:51;;;;;;;163.07;39.33;;;0.80;99.90;;;;;;5069231;28;20293;-73
2023/11/30 12:10:39;;;;;;;110.43;35.15;;;0.80;99.90;;;;;;5068648;28;20094;-73
2023/11/30 12:13:06;;;;;;;134.38;38.03;;;0.80;99.90;;;;;;5080802;28;20044;-71
2023/11/30 12:15:32;;;;;;;58.67;30.48;;;0.90;99.90;;;;;;5073896;28;20047;-73
2023/11/30 12:18:01;;;;;;;85.30;33.60;;;0.80;99.90;;;;;;5066927;28;20471;-73
2023/11/30 12:20:28;;;;;;;89.37;36.23;;;0.90;99.90;;;;;;5068397;28;20049;-73
2023/11/30 12:22:54;;;;;;;124.97;37.63;;;0.90;99.90;;;;;;5068339;28;20098;-73
2023/11/30 12:25:19;;;;;;;192.87;46.13;;;1.00;99.90;;;;;;5079892;28;20109;-72
2023/11/30 12:27:45;;;;;;;241.87;48.50;;;0.90;99.90;;;;;;5079576;28;20056;-73
2023/11/30 12:30:12;;;;;;;195.30;43.13;;;0.90;99.90;;;;;;5077662;28;20214;-73